Time;durP1;ratioP1;P1;durP2;ratioP2;P2;SDS_P1;SDS_P2;PMS_P1;PMS_P2;Temp;Humidity;BMP_temperature;BMP_pressure;BME280_temperature;BME280_humidity;BME280_pressure;Samples;Min_cycle;Max_cycle;Signal;HPM_P1;HPM_P2
2021/07/06 00:02:20;;;;;;;3.80;1.60;;;20.80;99.90;;;;;;5013423;28;20441;-80
2021/07/06 00:04:50;;;;;;;1.40;1.30;;;20.80;99.90;;;;;;5006701;28;20509;-82
2021/07/06 00:07:18;;;;;;;3.90;1.57;;;20.80;99.90;;;;;;5001168;28;20537;-81
2021/07/06 00:09:46;;;;;;;1.90;1.60;;;20.80;99.90;;;;;;5008723;28;20474;-81
2021/07/06 00:12:14;;;;;;;7.13;1.80;;;20.80;99.90;;;;;;5004637;28;20987;-83
2021/07/06 00:14:41;;;;;;;1.40;1.30;;;20.70;99.90;;;;;;5005699;28;20973;-83
2021/07/06 00:17:08;;;;;;;2.10;1.70;;;20.60;99.90;;;;;;5003388;28;20798;-83
2021/07/06 00:19:35;;;;;;;2.50;1.70;;;20.60;99.90;;;;;;5023754;28;20480;-80
2021/07/06 00:22:02;;;;;;;2.30;2.10;;;20.60;99.90;;;;;;5003931;28;20477;-81
2021/07/06 00:24:29;;;;;;;2.40;1.50;;;20.60;99.90;;;;;;4987478;28;20776;-82
2021/07/06 00:26:56;;;;;;;2.83;1.73;;;20.70;99.90;;;;;;5004808;28;20901;-82
2021/07/06 00:29:23;;;;;;;2.53;1.60;;;20.80;99.90;;;;;;5006821;28;20525;-83
2021/07/06 00:32:04;;;;;;;1.40;1.30;;;20.70;99.90;;;;;;4993156;28;20454;-81
2021/07/06 00:34:31;;;;;;;3.83;1.60;;;20.60;99.90;;;;;;4998651;28;20558;-82
2021/07/06 00:36:57;;;;;;;2.23;1.90;;;20.60;99.90;;;;;;5016800;28;20430;-82
2021/07/06 00:39:24;;;;;;;5.40;1.70;;;20.50;99.90;;;;;;5017911;28;20471;-83
2021/07/06 00:41:51;;;;;;;2.03;1.63;;;20.60;99.90;;;;;;5002764;28;20575;-85
2021/07/06 00:44:19;;;;;;;5.33;2.20;;;20.70;99.90;;;;;;5003569;28;21016;-81
2021/07/06 00:46:47;;;;;;;2.10;2.00;;;20.70;99.90;;;;;;5002493;28;20471;-81
2021/07/06 00:49:14;;;;;;;2.40;1.53;;;20.70;99.90;;;;;;4998881;28;20466;-81
2021/07/06 00:51:41;;;;;;;3.00;1.50;;;20.70;99.90;;;;;;5021095;28;20446;-82
2021/07/06 00:54:08;;;;;;;1.83;1.73;;;20.60;99.90;;;;;;5002709;28;20468;-80
2021/07/06 00:56:35;;;;;;;3.80;2.30;;;20.70;99.90;;;;;;5016546;28;20457;-80
2021/07/06 00:59:02;;;;;;;1.60;1.50;;;20.50;99.90;;;;;;5017293;28;20480;-81
2021/07/06 01:01:30;;;;;;;3.90;1.60;;;20.40;99.90;;;;;;5029082;28;20477;-81
2021/07/06 01:03:56;;;;;;;1.77;1.47;;;20.30;99.90;;;;;;5024186;28;20450;-80
2021/07/06 01:06:23;;;;;;;1.13;1.13;;;20.20;99.90;;;;;;5015091;28;20487;-80
2021/07/06 01:08:50;;;;;;;1.83;1.70;;;20.20;99.90;;;;;;5015509;28;20477;-81
2021/07/06 01:11:17;;;;;;;1.80;1.13;;;20.50;99.90;;;;;;5023884;28;20936;-82
2021/07/06 01:13:44;;;;;;;1.60;1.30;;;20.50;99.90;;;;;;5022593;28;20445;-81
2021/07/06 01:16:11;;;;;;;1.60;1.50;;;20.50;99.90;;;;;;5014151;28;20488;-84
2021/07/06 01:18:37;;;;;;;1.90;1.40;;;20.40;99.90;;;;;;5022727;28;20557;-80
2021/07/06 01:21:04;;;;;;;1.50;1.40;;;20.50;99.90;;;;;;5020146;28;20501;-81
2021/07/06 01:23:31;;;;;;;1.63;1.37;;;20.30;99.90;;;;;;5022693;28;20445;-84
2021/07/06 01:26:03;;;;;;;2.40;1.40;;;20.20;99.90;;;;;;5018512;28;20446;-81
2021/07/06 01:28:31;;;;;;;1.27;1.10;;;20.40;99.90;;;;;;5006646;28;20478;-79
2021/07/06 01:30:58;;;;;;;1.30;1.17;;;20.50;99.90;;;;;;5026614;28;20548;-82
2021/07/06 01:33:27;;;;;;;1.70;1.30;;;20.40;99.90;;;;;;5019092;28;20473;-80
2021/07/06 01:36:01;;;;;;;3.80;1.43;;;20.40;99.90;;;;;;5006379;28;20462;-81
2021/07/06 01:38:28;;;;;;;1.50;1.40;;;20.50;99.90;;;;;;5012282;28;20482;-82
2021/07/06 01:40:55;;;;;;;2.07;1.97;;;20.50;99.90;;;;;;4998018;28;20483;-81
2021/07/06 01:43:22;;;;;;;1.33;1.17;;;20.60;99.90;;;;;;5007963;28;20446;-83
2021/07/06 01:45:49;;;;;;;2.13;1.47;;;20.60;99.90;;;;;;5026134;28;20469;-81
2021/07/06 01:48:16;;;;;;;2.90;1.60;;;20.60;99.90;;;;;;5018089;28;20470;-81
2021/07/06 01:50:43;;;;;;;2.30;1.47;;;20.50;99.90;;;;;;5001258;28;20477;-83
2021/07/06 01:53:15;;;;;;;2.03;1.40;;;20.50;99.90;;;;;;5029408;28;20473;-81
2021/07/06 01:55:44;;;;;;;2.40;1.60;;;20.20;99.90;;;;;;5021254;28;21301;-83
2021/07/06 01:58:13;;;;;;;1.93;1.50;;;20.30;99.90;;;;;;5017454;28;20491;-81
2021/07/06 02:00:47;;;;;;;1.40;1.30;;;20.40;99.90;;;;;;5001954;28;20493;-80
2021/07/06 02:03:14;;;;;;;2.20;1.40;;;20.50;99.90;;;;;;4997420;28;20893;-80
2021/07/06 02:05:49;;;;;;;3.43;1.60;;;20.40;99.90;;;;;;4980874;28;20458;-82
2021/07/06 02:08:18;;;;;;;3.10;1.80;;;20.10;99.90;;;;;;5002731;28;20467;-82
2021/07/06 02:10:47;;;;;;;1.43;1.33;;;20.10;99.90;;;;;;5039041;28;20813;-80
2021/07/06 02:13:17;;;;;;;2.37;1.50;;;20.10;99.90;;;;;;5010414;28;20452;-83
2021/07/06 02:15:45;;;;;;;1.67;1.40;;;20.20;99.90;;;;;;4997554;28;20432;-80
2021/07/06 02:18:17;;;;;;;1.80;1.70;;;20.00;99.90;;;;;;4985687;28;20482;-82
2021/07/06 02:20:44;;;;;;;2.10;1.50;;;20.00;99.90;;;;;;4978778;28;20455;-81
2021/07/06 02:23:11;;;;;;;1.50;1.40;;;20.10;99.90;;;;;;4995205;28;20542;-81
2021/07/06 02:25:38;;;;;;;1.70;1.23;;;20.20;99.90;;;;;;4997844;28;20447;-80
2021/07/06 02:28:04;;;;;;;1.50;1.40;;;20.20;99.90;;;;;;4998012;28;20497;-80
2021/07/06 02:30:31;;;;;;;2.07;1.37;;;20.00;99.90;;;;;;5004495;28;20474;-82
2021/07/06 02:32:58;;;;;;;1.70;1.27;;;20.10;99.90;;;;;;5010143;28;20460;-81
2021/07/06 02:35:27;;;;;;;1.50;1.40;;;20.00;99.90;;;;;;5026997;28;20501;-81
2021/07/06 02:37:58;;;;;;;1.63;1.37;;;20.00;99.90;;;;;;5005667;28;20457;-80
2021/07/06 02:40:26;;;;;;;1.40;1.30;;;20.10;99.90;;;;;;5022445;28;20450;-80
2021/07/06 02:42:53;;;;;;;2.00;1.47;;;20.10;99.90;;;;;;5005342;28;20483;-80
2021/07/06 02:45:20;;;;;;;4.60;1.40;;;20.30;99.90;;;;;;4994019;28;20447;-82
2021/07/06 02:47:47;;;;;;;1.47;1.37;;;20.30;99.90;;;;;;5027013;28;20499;-82
2021/07/06 02:50:16;;;;;;;4.77;1.50;;;20.30;99.90;;;;;;5015902;28;20488;-80
2021/07/06 02:52:43;;;;;;;1.30;1.20;;;20.20;99.90;;;;;;4998316;28;20469;-80
2021/07/06 02:55:11;;;;;;;1.50;1.40;;;20.10;99.90;;;;;;5019227;28;20465;-83
2021/07/06 02:57:39;;;;;;;1.57;1.40;;;20.10;99.90;;;;;;5008984;28;20453;-80
2021/07/06 03:00:13;;;;;;;2.00;1.40;;;19.90;99.90;;;;;;4990120;28;20482;-80
2021/07/06 03:02:42;;;;;;;2.93;1.70;;;19.80;99.90;;;;;;5001029;28;20463;-80
2021/07/06 03:05:10;;;;;;;1.77;1.67;;;19.80;99.90;;;;;;5005597;28;20530;-81
2021/07/06 03:07:47;;;;;;;1.50;1.40;;;19.70;99.90;;;;;;4987936;28;20463;-85
2021/07/06 03:10:43;;;;;;;1.87;1.50;;;19.90;99.90;;;;;;5001515;28;20499;-80
2021/07/06 03:13:09;;;;;;;2.20;1.40;;;20.10;99.90;;;;;;4996378;28;20462;-81
2021/07/06 03:15:37;;;;;;;1.57;1.47;;;20.10;99.90;;;;;;4996747;28;20451;-83
2021/07/06 03:18:06;;;;;;;1.57;1.40;;;20.10;99.90;;;;;;4989486;28;20522;-80
2021/07/06 03:20:33;;;;;;;2.43;1.63;;;20.00;99.90;;;;;;4978330;28;20527;-81
2021/07/06 03:23:00;;;;;;;1.63;1.53;;;19.80;99.90;;;;;;4995450;28;20486;-82
2021/07/06 03:25:28;;;;;;;1.80;1.70;;;20.00;99.90;;;;;;4979750;28;20466;-80
2021/07/06 03:27:56;;;;;;;2.63;1.67;;;20.10;99.90;;;;;;4995982;28;20944;-80
2021/07/06 03:30:28;;;;;;;1.50;1.40;;;20.00;99.90;;;;;;5023761;28;20458;-83
2021/07/06 03:32:57;;;;;;;4.73;1.60;;;20.10;99.90;;;;;;5018339;28;20446;-81
2021/07/06 03:35:25;;;;;;;2.80;1.47;;;20.10;99.90;;;;;;5024809;28;20489;-80
2021/07/06 03:37:52;;;;;;;5.47;1.63;;;20.10;99.90;;;;;;5027729;28;20446;-83
2021/07/06 03:40:19;;;;;;;2.43;1.60;;;20.20;99.90;;;;;;5018552;28;20453;-80
2021/07/06 03:42:50;;;;;;;1.67;1.23;;;20.20;99.90;;;;;;5010191;28;20542;-81
2021/07/06 03:45:19;;;;;;;1.93;1.63;;;20.00;99.90;;;;;;4993765;28;20899;-82
2021/07/06 03:47:46;;;;;;;2.23;1.60;;;20.20;99.90;;;;;;4996093;28;20451;-81
2021/07/06 03:50:19;;;;;;;1.50;1.40;;;20.30;99.90;;;;;;5000314;28;20851;-80
2021/07/06 03:52:47;;;;;;;1.70;1.60;;;20.20;99.90;;;;;;5014303;28;20431;-81
2021/07/06 03:55:14;;;;;;;3.10;1.50;;;20.00;99.90;;;;;;5007066;28;20445;-81
2021/07/06 03:57:44;;;;;;;2.30;1.50;;;20.20;99.90;;;;;;5010956;28;20453;-82
2021/07/06 04:00:14;;;;;;;1.53;1.43;;;20.20;99.90;;;;;;5004789;28;20537;-84
2021/07/06 04:02:41;;;;;;;4.20;1.47;;;20.10;99.90;;;;;;5008946;28;20482;-81
2021/07/06 04:05:10;;;;;;;1.53;1.43;;;20.10;99.90;;;;;;5008554;28;20446;-81
2021/07/06 04:07:37;;;;;;;1.80;1.70;;;20.20;99.90;;;;;;5009643;28;20444;-82
2021/07/06 04:10:07;;;;;;;3.00;1.80;;;20.30;99.90;;;;;;5015802;28;20469;-81
2021/07/06 04:12:35;;;;;;;2.57;1.67;;;20.20;99.90;;;;;;5028430;28;20516;-82
2021/07/06 04:15:03;;;;;;;1.60;1.50;;;20.20;99.90;;;;;;5027932;28;20912;-83
2021/07/06 04:17:30;;;;;;;1.73;1.63;;;20.10;99.90;;;;;;5008711;28;20449;-83
2021/07/06 04:19:56;;;;;;;2.00;1.60;;;20.10;99.90;;;;;;5008329;28;20466;-82
2021/07/06 04:22:23;;;;;;;4.60;2.07;;;20.10;99.90;;;;;;5008316;28;20478;-81
2021/07/06 04:24:50;;;;;;;1.60;1.50;;;20.10;99.90;;;;;;5008188;28;20450;-81
2021/07/06 04:27:25;;;;;;;2.23;1.90;;;20.00;99.90;;;;;;5012898;28;20464;-80
2021/07/06 04:29:55;;;;;;;4.33;2.37;;;20.00;99.90;;;;;;5000802;28;20881;-79
2021/07/06 04:32:22;;;;;;;4.03;2.10;;;20.10;99.90;;;;;;5018290;28;20473;-81
2021/07/06 04:34:51;;;;;;;7.50;2.37;;;20.20;99.90;;;;;;5007918;28;20447;-82
2021/07/06 04:37:30;;;;;;;3.97;1.90;;;19.90;99.90;;;;;;5008989;28;20491;-80
2021/07/06 04:39:57;;;;;;;2.40;1.97;;;20.00;99.90;;;;;;5007938;28;20490;-81
2021/07/06 04:42:23;;;;;;;2.17;1.63;;;20.10;99.90;;;;;;5006319;28;20485;-81
2021/07/06 04:44:50;;;;;;;5.10;1.70;;;20.30;99.90;;;;;;5008083;28;20447;-81
2021/07/06 04:47:17;;;;;;;3.77;2.00;;;20.20;99.90;;;;;;5008714;28;20459;-82
2021/07/06 04:49:44;;;;;;;2.03;1.40;;;20.10;99.90;;;;;;5008596;28;20467;-80
2021/07/06 04:52:10;;;;;;;3.03;1.80;;;20.20;99.90;;;;;;5008389;28;20513;-82
2021/07/06 04:54:37;;;;;;;3.40;1.80;;;20.20;99.90;;;;;;5008127;28;20809;-81
2021/07/06 04:57:04;;;;;;;3.20;1.80;;;20.30;99.90;;;;;;5007325;28;20459;-83
2021/07/06 04:59:31;;;;;;;2.60;2.10;;;20.20;99.90;;;;;;4991198;28;20523;-84
2021/07/06 05:02:17;;;;;;;2.20;1.50;;;20.20;99.90;;;;;;4991227;28;20479;-83
2021/07/06 05:04:58;;;;;;;1.83;1.63;;;20.40;99.90;;;;;;5007309;28;20466;-81
2021/07/06 05:07:59;;;;;;;2.40;1.40;;;20.50;99.90;;;;;;5008222;28;20431;-80
2021/07/06 05:10:37;;;;;;;2.00;1.80;;;20.30;99.90;;;;;;5008136;28;20516;-82
2021/07/06 05:13:15;;;;;;;4.10;2.43;;;20.40;99.90;;;;;;4992522;28;20447;-81
2021/07/06 05:15:41;;;;;;;2.33;2.13;;;20.40;99.90;;;;;;5009062;28;20455;-84
2021/07/06 05:18:09;;;;;;;8.80;2.00;;;20.50;99.90;;;;;;5008390;28;20506;-81
2021/07/06 05:20:36;;;;;;;1.70;1.60;;;20.50;99.90;;;;;;5008219;28;20486;-82
2021/07/06 05:23:04;;;;;;;2.17;1.80;;;20.30;99.90;;;;;;4989378;28;20475;-80
2021/07/06 05:25:30;;;;;;;3.70;1.93;;;20.20;99.90;;;;;;5008294;28;20959;-82
2021/07/06 05:27:57;;;;;;;3.20;2.00;;;20.00;99.90;;;;;;5020154;28;20449;-81
2021/07/06 05:30:25;;;;;;;4.53;1.80;;;20.00;99.90;;;;;;5029041;28;20446;-83
2021/07/06 05:32:52;;;;;;;2.33;1.80;;;20.10;99.90;;;;;;5007460;28;20728;-82
2021/07/06 05:35:18;;;;;;;3.80;2.63;;;20.10;99.90;;;;;;5007942;28;20447;-81
2021/07/06 05:37:45;;;;;;;5.13;2.40;;;20.00;99.90;;;;;;5007873;28;20455;-81
2021/07/06 05:40:13;;;;;;;3.50;2.47;;;20.10;99.90;;;;;;5006768;28;20479;-81
2021/07/06 05:42:41;;;;;;;4.10;2.33;;;20.10;99.90;;;;;;5006826;28;20479;-81
2021/07/06 05:45:12;;;;;;;4.03;2.53;;;20.00;99.90;;;;;;5007220;28;20510;-80
2021/07/06 05:47:40;;;;;;;3.53;2.20;;;20.00;99.90;;;;;;4989351;28;20444;-80
2021/07/06 05:50:10;;;;;;;3.43;2.27;;;19.90;99.90;;;;;;5007455;28;20510;-81
2021/07/06 05:52:37;;;;;;;3.20;2.37;;;19.90;99.90;;;;;;5006341;28;20708;-82
2021/07/06 05:55:07;;;;;;;2.30;1.97;;;20.00;99.90;;;;;;5006793;28;20466;-82
2021/07/06 05:57:36;;;;;;;5.20;1.90;;;20.20;99.90;;;;;;5021638;28;20451;-82
2021/07/06 06:00:07;;;;;;;4.43;2.27;;;20.20;99.90;;;;;;5008731;28;20572;-81
2021/07/06 06:02:34;;;;;;;2.27;2.17;;;20.10;99.90;;;;;;5008487;28;20489;-82
2021/07/06 06:05:01;;;;;;;5.07;2.73;;;20.20;99.90;;;;;;5007985;28;20450;-82
2021/07/06 06:07:28;;;;;;;6.73;3.30;;;20.20;99.90;;;;;;5008384;28;20469;-81
2021/07/06 06:09:55;;;;;;;8.50;3.77;;;20.10;99.90;;;;;;5007547;28;20484;-82
2021/07/06 06:12:22;;;;;;;10.57;3.83;;;20.00;99.90;;;;;;5026767;28;20464;-84
2021/07/06 06:14:48;;;;;;;5.53;3.57;;;20.00;99.90;;;;;;5027625;28;20450;-82
2021/07/06 06:17:15;;;;;;;6.57;3.40;;;20.10;99.90;;;;;;5010542;28;20461;-83
2021/07/06 06:19:42;;;;;;;5.93;2.90;;;20.10;99.90;;;;;;5007813;28;20509;-83
2021/07/06 06:22:08;;;;;;;3.97;2.60;;;20.10;99.90;;;;;;5006439;28;20522;-82
2021/07/06 06:24:35;;;;;;;3.83;2.30;;;20.10;99.90;;;;;;5007545;28;20466;-83
2021/07/06 06:27:02;;;;;;;2.93;2.73;;;20.10;99.90;;;;;;5009868;28;20435;-84
2021/07/06 06:29:29;;;;;;;3.53;2.83;;;20.10;99.90;;;;;;5007762;28;20462;-82
2021/07/06 06:31:56;;;;;;;4.00;3.10;;;20.10;99.90;;;;;;5019411;28;20502;-81
2021/07/06 06:34:22;;;;;;;4.00;2.70;;;20.00;99.90;;;;;;5006233;28;20478;-82
2021/07/06 06:36:50;;;;;;;3.60;2.60;;;19.90;99.90;;;;;;5006510;28;20449;-82
2021/07/06 06:39:17;;;;;;;5.30;3.20;;;19.80;99.90;;;;;;5007032;28;20506;-82
2021/07/06 06:41:43;;;;;;;13.13;3.77;;;19.80;99.90;;;;;;5006548;28;20451;-81
2021/07/06 06:44:10;;;;;;;7.03;3.87;;;19.80;99.90;;;;;;5007423;28;20704;-81
2021/07/06 06:46:37;;;;;;;5.97;3.40;;;19.80;99.90;;;;;;5008007;28;20455;-82
2021/07/06 06:49:04;;;;;;;8.00;4.00;;;20.00;99.90;;;;;;5007667;28;20889;-82
2021/07/06 06:51:32;;;;;;;4.43;2.47;;;19.80;99.90;;;;;;5007406;28;20459;-82
2021/07/06 06:53:59;;;;;;;4.57;3.13;;;19.70;99.90;;;;;;5007252;28;20847;-81
2021/07/06 06:56:26;;;;;;;4.70;2.97;;;19.60;99.90;;;;;;5007397;28;20459;-82
2021/07/06 06:58:54;;;;;;;3.63;2.40;;;19.70;99.90;;;;;;4993051;28;20567;-83
2021/07/06 07:01:27;;;;;;;4.13;2.70;;;19.80;99.90;;;;;;5006237;28;20462;-84
2021/07/06 07:03:57;;;;;;;4.50;3.00;;;19.70;99.90;;;;;;4991058;28;20509;-83
2021/07/06 07:06:24;;;;;;;5.00;3.20;;;19.70;99.90;;;;;;4989743;28;20547;-81
2021/07/06 07:08:53;;;;;;;4.30;2.87;;;19.60;99.90;;;;;;5005771;28;20471;-82
2021/07/06 07:11:26;;;;;;;5.97;2.70;;;19.60;99.90;;;;;;5006044;28;20477;-82
2021/07/06 07:13:59;;;;;;;2.73;2.47;;;19.60;99.90;;;;;;5005912;28;20451;-83
2021/07/06 07:16:32;;;;;;;2.47;2.27;;;19.50;99.90;;;;;;5005240;28;20467;-83
2021/07/06 07:19:00;;;;;;;5.27;2.40;;;19.30;99.90;;;;;;5011968;28;20473;-83
2021/07/06 07:21:32;;;;;;;4.53;2.43;;;19.30;99.90;;;;;;5011761;28;20960;-81
2021/07/06 07:23:59;;;;;;;2.50;2.30;;;19.40;99.90;;;;;;5011989;28;20484;-83
2021/07/06 07:26:28;;;;;;;2.30;2.10;;;19.60;99.90;;;;;;5024288;28;20447;-80
2021/07/06 07:29:02;;;;;;;5.20;3.13;;;19.70;99.90;;;;;;5011172;28;20466;-82
2021/07/06 07:31:28;;;;;;;4.03;3.03;;;19.70;99.90;;;;;;5026202;28;20461;-82
2021/07/06 07:33:55;;;;;;;4.67;3.10;;;19.60;99.90;;;;;;5032511;28;20450;-82
2021/07/06 07:36:25;;;;;;;3.23;2.47;;;19.50;99.90;;;;;;5016135;28;20454;-82
2021/07/06 07:39:07;;;;;;;2.93;2.60;;;19.70;99.90;;;;;;5019974;23;20562;-83
2021/07/06 07:41:41;;;;;;;3.90;2.50;;;19.50;99.90;;;;;;5011573;28;20447;-82
2021/07/06 07:44:16;;;;;;;2.63;2.43;;;19.50;99.90;;;;;;4997703;28;20479;-79
2021/07/06 07:46:47;;;;;;;4.33;2.13;;;19.60;99.90;;;;;;5004814;28;20466;-85
2021/07/06 07:53:38;;;;;;;5.77;2.37;;;19.50;99.90;;;;;;5013660;28;20443;-84
2021/07/06 07:56:25;;;;;;;3.27;2.13;;;19.90;99.90;;;;;;4990536;28;20489;-82
2021/07/06 07:58:52;;;;;;;2.47;2.27;;;20.00;99.90;;;;;;5021538;28;21105;-83
2021/07/06 08:01:19;;;;;;;3.10;2.40;;;20.00;99.90;;;;;;5010120;28;20483;-81
2021/07/06 08:03:46;;;;;;;5.83;2.40;;;20.00;99.90;;;;;;5013003;28;20478;-82
2021/07/06 08:06:12;;;;;;;2.43;2.23;;;20.00;99.90;;;;;;4995550;28;20447;-84
2021/07/06 08:08:39;;;;;;;3.30;2.20;;;19.70;99.90;;;;;;5013979;28;20491;-83
2021/07/06 08:11:06;;;;;;;2.33;2.00;;;19.80;99.90;;;;;;5024781;28;20489;-82
2021/07/06 08:13:33;;;;;;;5.23;1.80;;;19.80;99.90;;;;;;5025824;28;20463;-82
2021/07/06 08:16:01;;;;;;;2.80;1.80;;;19.90;99.90;;;;;;5030889;28;20509;-83
2021/07/06 08:18:28;;;;;;;1.80;1.70;;;19.90;99.90;;;;;;5028660;28;20557;-83
2021/07/06 08:20:55;;;;;;;2.90;2.30;;;20.20;99.90;;;;;;5016690;28;20462;-82
2021/07/06 08:23:21;;;;;;;2.07;1.80;;;20.20;99.90;;;;;;5029009;28;20478;-85
2021/07/06 08:25:48;;;;;;;2.50;2.30;;;20.40;99.90;;;;;;5012026;28;20450;-81
2021/07/06 08:28:15;;;;;;;3.33;1.97;;;20.30;99.90;;;;;;5028978;28;20469;-85
2021/07/06 08:30:42;;;;;;;2.17;2.00;;;20.40;99.90;;;;;;5013683;28;20461;-84
2021/07/06 08:33:09;;;;;;;1.90;1.80;;;20.40;99.90;;;;;;5033002;28;20455;-83
2021/07/06 08:35:36;;;;;;;2.87;2.00;;;20.50;99.90;;;;;;5009389;28;20474;-84
2021/07/06 08:38:03;;;;;;;2.90;2.40;;;20.20;99.90;;;;;;5010715;28;20451;-83
2021/07/06 08:40:30;;;;;;;1.87;1.77;;;20.10;99.90;;;;;;5022800;28;20466;-83
2021/07/06 08:42:59;;;;;;;1.80;1.70;;;20.00;99.90;;;;;;5010830;28;20457;-84
2021/07/06 08:45:26;;;;;;;2.20;2.10;;;20.30;99.90;;;;;;5023979;28;20466;-83
2021/07/06 08:47:54;;;;;;;2.20;1.70;;;20.10;99.90;;;;;;5028785;28;20457;-83
2021/07/06 08:50:23;;;;;;;2.43;2.17;;;20.00;99.90;;;;;;5010953;28;20479;-83
2021/07/06 08:52:50;;;;;;;3.00;2.07;;;20.30;99.90;;;;;;5011402;28;20466;-82
2021/07/06 08:55:20;;;;;;;5.03;2.50;;;20.30;99.90;;;;;;5012202;28;20461;-83
2021/07/06 08:57:49;;;;;;;3.00;1.90;;;20.50;99.90;;;;;;5026569;28;20470;-83
2021/07/06 09:00:18;;;;;;;2.47;2.27;;;20.60;99.90;;;;;;5009936;28;20522;-83
2021/07/06 09:02:55;;;;;;;2.80;2.60;;;20.60;99.90;;;;;;5004541;28;20509;-83
2021/07/06 09:05:23;;;;;;;1.90;1.80;;;20.60;99.90;;;;;;5025265;28;20467;-84
2021/07/06 09:07:50;;;;;;;3.10;1.90;;;20.60;99.90;;;;;;5028655;28;20450;-82
2021/07/06 09:10:25;;;;;;;2.00;1.80;;;20.80;99.90;;;;;;5024953;28;20554;-83
2021/07/06 09:12:53;;;;;;;1.73;1.63;;;20.80;99.90;;;;;;5022276;28;20473;-81
2021/07/06 09:15:23;;;;;;;2.53;2.33;;;20.80;99.90;;;;;;5024300;28;20453;-82
2021/07/06 09:18:13;;;;;;;2.67;2.27;;;20.80;99.90;;;;;;5021801;28;20451;-82
2021/07/06 09:20:42;;;;;;;2.20;1.73;;;20.80;99.90;;;;;;5017459;28;20435;-85
2021/07/06 09:23:21;;;;;;;5.17;2.57;;;20.80;99.90;;;;;;5035235;28;20462;-83
2021/07/06 09:26:22;;;;;;;2.63;1.90;;;20.90;99.90;;;;;;5029364;28;20452;-83
2021/07/06 09:28:54;;;;;;;3.33;2.33;;;20.60;99.90;;;;;;5021919;28;20478;-83
2021/07/06 09:31:36;;;;;;;2.23;1.90;;;20.50;99.90;;;;;;5000270;28;20966;-83
2021/07/06 09:34:11;;;;;;;3.07;1.50;;;20.50;99.90;;;;;;5023369;28;20446;-83
2021/07/06 09:36:42;;;;;;;1.77;1.67;;;20.80;99.90;;;;;;5003424;28;20462;-82
2021/07/06 09:39:23;;;;;;;2.40;1.67;;;21.10;99.90;;;;;;4995764;28;20489;-82
2021/07/06 09:41:57;;;;;;;3.23;1.93;;;21.30;99.90;;;;;;5003968;28;20447;-83
2021/07/06 09:44:35;;;;;;;2.63;1.80;;;21.40;99.90;;;;;;5003740;28;20481;-83
2021/07/06 09:47:04;;;;;;;3.43;2.00;;;21.50;99.90;;;;;;4986649;28;20462;-82
2021/07/06 09:49:43;;;;;;;3.93;1.77;;;21.50;99.90;;;;;;5017080;28;20470;-83
2021/07/06 09:52:18;;;;;;;4.53;2.10;;;21.40;99.90;;;;;;5013745;28;20459;-83
2021/07/06 09:54:51;;;;;;;2.50;1.33;;;21.50;99.90;;;;;;4991426;28;20482;-83
2021/07/06 09:57:33;;;;;;;2.50;1.63;;;21.60;99.90;;;;;;4983401;28;20458;-83
2021/07/06 10:00:03;;;;;;;2.50;1.83;;;21.70;99.90;;;;;;5009937;28;20501;-84
2021/07/06 10:02:31;;;;;;;1.50;1.40;;;21.80;99.90;;;;;;4985848;28;20545;-83
2021/07/06 10:04:59;;;;;;;1.30;1.20;;;21.80;99.90;;;;;;5004127;28;20447;-84
2021/07/06 10:07:27;;;;;;;1.93;1.43;;;21.80;99.90;;;;;;5004852;28;20466;-84
2021/07/06 10:09:54;;;;;;;1.50;1.20;;;21.90;99.90;;;;;;4982559;28;20475;-84
2021/07/06 10:12:23;;;;;;;1.30;1.10;;;21.90;99.90;;;;;;5000475;28;20450;-84
2021/07/06 10:14:51;;;;;;;1.10;1.00;;;21.90;97.90;;;;;;4991267;28;20472;-83
2021/07/06 10:17:29;;;;;;;3.03;1.30;;;21.90;98.20;;;;;;5001969;28;20525;-83
2021/07/06 10:19:57;;;;;;;2.20;1.03;;;22.10;97.60;;;;;;5000668;28;20473;-83
2021/07/06 10:22:24;;;;;;;2.30;1.00;;;22.00;97.50;;;;;;5021334;28;20455;-83
2021/07/06 10:24:51;;;;;;;1.30;1.20;;;22.20;96.10;;;;;;4983721;28;20502;-83
2021/07/06 10:27:25;;;;;;;1.00;1.00;;;22.30;95.60;;;;;;5007617;28;20504;-83
2021/07/06 10:30:11;;;;;;;1.10;0.93;;;22.50;95.80;;;;;;5000857;28;20478;-83
2021/07/06 10:32:39;;;;;;;2.60;0.90;;;22.50;95.20;;;;;;5022176;28;20916;-83
2021/07/06 10:35:08;;;;;;;1.70;1.00;;;22.70;95.10;;;;;;5001319;28;20450;-83
2021/07/06 10:37:37;;;;;;;2.53;1.23;;;23.50;94.20;;;;;;4984665;28;20470;-83
2021/07/06 10:40:15;;;;;;;1.30;1.20;;;24.80;92.60;;;;;;4991274;28;20836;-83
2021/07/06 10:42:45;;;;;;;1.00;0.90;;;26.10;89.10;;;;;;5004390;28;20455;-83
2021/07/06 10:45:21;;;;;;;1.67;1.20;;;26.60;83.40;;;;;;5004953;28;20981;-83
2021/07/06 10:47:52;;;;;;;1.67;0.80;;;26.70;80.80;;;;;;5020876;28;20468;-83
2021/07/06 10:50:23;;;;;;;0.77;0.77;;;26.80;80.70;;;;;;5002469;28;20446;-83
2021/07/06 10:53:19;;;;;;;0.63;0.60;;;26.60;80.50;;;;;;5001020;28;20471;-82
2021/07/06 10:56:00;;;;;;;0.80;0.60;;;27.20;75.40;;;;;;4998577;28;20542;-83
2021/07/06 10:58:49;;;;;;;0.90;0.60;;;27.50;69.40;;;;;;5019855;28;20474;-83
2021/07/06 11:01:41;;;;;;;0.77;0.53;;;27.20;71.20;;;;;;4998223;28;20466;-83
2021/07/06 11:04:26;;;;;;;1.30;0.90;;;27.70;68.00;;;;;;5008044;28;20557;-83
2021/07/06 11:06:53;;;;;;;1.93;0.80;;;27.90;66.30;;;;;;5003459;28;20518;-83
2021/07/06 11:09:36;;;;;;;2.30;0.60;;;27.90;66.30;;;;;;4999511;28;20466;-82
2021/07/06 11:12:44;;;;;;;1.00;0.63;;;27.60;65.20;;;;;;4957621;28;20479;-83
2021/07/06 11:15:20;;;;;;;1.73;0.53;;;26.80;67.60;;;;;;4960596;29;20437;-83
2021/07/06 11:18:12;;;;;;;1.07;0.60;;;25.90;70.50;;;;;;4964489;28;20451;-84
2021/07/06 11:20:53;;;;;;;1.73;1.00;;;25.50;73.40;;;;;;4960640;29;20461;-83
2021/07/06 11:23:32;;;;;;;0.80;0.80;;;25.50;73.90;;;;;;4962224;28;20565;-83
2021/07/06 11:26:04;;;;;;;1.20;1.00;;;25.50;73.60;;;;;;4962493;29;20528;-84
2021/07/06 11:28:48;;;;;;;0.80;0.63;;;25.80;74.40;;;;;;4959834;29;20478;-83
2021/07/06 11:31:19;;;;;;;1.17;0.93;;;26.10;74.50;;;;;;4960435;29;20425;-83
2021/07/06 11:33:47;;;;;;;2.63;0.70;;;27.00;70.20;;;;;;4960934;29;20516;-83
2021/07/06 11:36:23;;;;;;;1.73;0.70;;;26.80;67.50;;;;;;4961148;29;20474;-83
2021/07/06 11:38:54;;;;;;;1.43;0.60;;;26.70;67.10;;;;;;4943401;29;20870;-83
2021/07/06 11:41:23;;;;;;;1.93;0.60;;;26.90;68.60;;;;;;4942667;29;20468;-84
2021/07/06 11:43:50;;;;;;;1.00;0.77;;;27.20;67.50;;;;;;4943291;29;20560;-84
2021/07/06 11:46:20;;;;;;;7.30;0.80;;;26.70;67.70;;;;;;4942759;29;20458;-84
2021/07/06 11:48:51;;;;;;;0.93;0.57;;;27.10;65.00;;;;;;4942141;29;20474;-83
2021/07/06 11:51:29;;;;;;;1.10;0.70;;;26.80;62.20;;;;;;4942608;29;20427;-84
2021/07/06 11:54:08;;;;;;;1.67;0.70;;;27.00;62.30;;;;;;4949053;29;20488;-84
2021/07/06 11:56:46;;;;;;;1.53;1.00;;;27.40;61.10;;;;;;4960073;28;20556;-83
2021/07/06 11:59:26;;;;;;;0.63;0.57;;;27.90;59.70;;;;;;4957322;28;20552;-83
2021/07/06 12:02:09;;;;;;;2.73;0.77;;;27.50;59.50;;;;;;4957678;28;20513;-83
2021/07/06 12:04:36;;;;;;;0.97;0.77;;;27.70;58.70;;;;;;4951572;28;20553;-83
2021/07/06 12:07:08;;;;;;;0.80;0.60;;;27.90;58.40;;;;;;4945536;29;20477;-84
2021/07/06 12:09:36;;;;;;;3.60;0.70;;;27.40;58.50;;;;;;4945362;29;20473;-83
2021/07/06 12:12:14;;;;;;;2.43;0.97;;;27.10;58.80;;;;;;4945534;29;20489;-84
2021/07/06 12:14:46;;;;;;;3.03;1.10;;;27.10;58.20;;;;;;4957179;28;20515;-84
2021/07/06 12:17:26;;;;;;;1.97;1.00;;;26.90;58.90;;;;;;4966465;28;20550;-83
2021/07/06 12:19:53;;;;;;;1.90;0.70;;;26.60;59.20;;;;;;4956924;29;20831;-82
2021/07/06 12:22:23;;;;;;;1.10;0.63;;;26.40;58.20;;;;;;4960574;29;20484;-83
2021/07/06 12:24:53;;;;;;;2.10;0.70;;;26.30;59.20;;;;;;4962784;29;20507;-83
2021/07/06 12:27:21;;;;;;;0.87;0.60;;;26.50;58.80;;;;;;4959779;29;20892;-84
2021/07/06 12:29:56;;;;;;;2.00;0.70;;;26.30;58.70;;;;;;4960679;29;20481;-83
2021/07/06 12:32:23;;;;;;;0.80;0.73;;;26.20;58.90;;;;;;4959966;29;20475;-83
2021/07/06 12:34:58;;;;;;;0.83;0.73;;;26.00;57.90;;;;;;4961704;29;20516;-82
2021/07/06 12:37:26;;;;;;;2.00;0.80;;;25.70;59.70;;;;;;4955779;29;20532;-84
2021/07/06 12:40:07;;;;;;;1.93;0.83;;;25.70;60.00;;;;;;4944120;29;20501;-83
2021/07/06 12:42:39;;;;;;;2.93;1.07;;;26.00;59.90;;;;;;4960305;29;20459;-83
2021/07/06 12:45:18;;;;;;;1.83;0.70;;;26.20;59.70;;;;;;4957383;29;20481;-83
2021/07/06 12:47:47;;;;;;;1.53;0.83;;;26.20;59.90;;;;;;4951496;29;21283;-83
2021/07/06 12:50:14;;;;;;;1.57;0.80;;;26.20;59.40;;;;;;4957699;29;20560;-84
2021/07/06 12:52:42;;;;;;;2.80;0.90;;;26.90;58.30;;;;;;4957393;29;20463;-83
2021/07/06 12:55:14;;;;;;;1.47;0.80;;;26.90;57.60;;;;;;4951488;28;20476;-83
2021/07/06 12:57:44;;;;;;;1.07;0.57;;;27.30;57.00;;;;;;4944536;29;20437;-83
2021/07/06 13:00:16;;;;;;;2.13;0.60;;;26.90;56.60;;;;;;4941886;29;20474;-83
2021/07/06 13:03:02;;;;;;;1.23;0.60;;;26.60;57.30;;;;;;4959198;28;20456;-83
2021/07/06 13:05:38;;;;;;;4.17;1.00;;;26.00;57.50;;;;;;4941248;29;20485;-83
2021/07/06 13:08:18;;;;;;;1.80;0.73;;;26.20;58.10;;;;;;4959233;29;20453;-82
2021/07/06 13:10:45;;;;;;;1.53;0.77;;;26.20;57.10;;;;;;4959733;29;20464;-82